sensor_id;sensor_type;location;lat;lon;timestamp;temperature;humidity
6377;DHT22;3221;48.858;10.128;2023-09-18T00:00:08;21.10;99.90
6377;DHT22;3221;48.858;10.128;2023-09-18T00:02:39;21.10;99.90
6377;DHT22;3221;48.858;10.128;2023-09-18T00:05:06;21.00;99.90
6377;DHT22;3221;48.858;10.128;2023-09-18T00:07:33;21.00;99.90
6377;DHT22;3221;48.858;10.128;2023-09-18T00:10:00;21.10;99.90
6377;DHT22;3221;48.858;10.128;2023-09-18T00:12:27;21.00;99.90
6377;DHT22;3221;48.858;10.128;2023-09-18T00:14:54;21.10;99.90
6377;DHT22;3221;48.858;10.128;2023-09-18T00:17:20;21.10;99.90
6377;DHT22;3221;48.858;10.128;2023-09-18T00:19:49;21.00;99.90
6377;DHT22;3221;48.858;10.128;2023-09-18T00:22:18;20.90;99.90
6377;DHT22;3221;48.858;10.128;2023-09-18T00:24:45;21.00;99.90
6377;DHT22;3221;48.858;10.128;2023-09-18T00:27:12;21.00;99.90
6377;DHT22;3221;48.858;10.128;2023-09-18T00:29:40;21.00;99.90
6377;DHT22;3221;48.858;10.128;2023-09-18T00:32:07;21.00;99.90
6377;DHT22;3221;48.858;10.128;2023-09-18T00:34:35;21.20;99.90
6377;DHT22;3221;48.858;10.128;2023-09-18T00:37:02;21.00;99.90
6377;DHT22;3221;48.858;10.128;2023-09-18T00:39:29;21.10;99.90
6377;DHT22;3221;48.858;10.128;2023-09-18T00:41:57;21.10;99.90
6377;DHT22;3221;48.858;10.128;2023-09-18T00:44:24;21.20;99.90
6377;DHT22;3221;48.858;10.128;2023-09-18T00:46:53;21.20;99.90
6377;DHT22;3221;48.858;10.128;2023-09-18T00:49:22;21.30;99.90
6377;DHT22;3221;48.858;10.128;2023-09-18T00:51:51;21.30;99.90
6377;DHT22;3221;48.858;10.128;2023-09-18T00:54:18;21.30;99.90
6377;DHT22;3221;48.858;10.128;2023-09-18T00:56:46;21.30;99.90
6377;DHT22;3221;48.858;10.128;2023-09-18T00:59:15;21.40;99.90
6377;DHT22;3221;48.858;10.128;2023-09-18T01:01:42;21.30;99.90
6377;DHT22;3221;48.858;10.128;2023-09-18T01:04:09;21.30;99.90
6377;DHT22;3221;48.858;10.128;2023-09-18T01:06:37;21.40;99.90
6377;DHT22;3221;48.858;10.128;2023-09-18T01:09:04;21.30;99.90
6377;DHT22;3221;48.858;10.128;2023-09-18T01:12:14;21.40;99.90
6377;DHT22;3221;48.858;10.128;2023-09-18T01:15:05;21.40;99.90
6377;DHT22;3221;48.858;10.128;2023-09-18T01:17:35;21.40;99.90
6377;DHT22;3221;48.858;10.128;2023-09-18T01:20:05;21.30;99.90
6377;DHT22;3221;48.858;10.128;2023-09-18T01:22:35;21.30;99.90
6377;DHT22;3221;48.858;10.128;2023-09-18T01:25:02;21.30;99.90
6377;DHT22;3221;48.858;10.128;2023-09-18T01:27:29;21.30;99.90
6377;DHT22;3221;48.858;10.128;2023-09-18T01:29:56;21.30;99.90
6377;DHT22;3221;48.858;10.128;2023-09-18T01:32:25;21.30;99.90
6377;DHT22;3221;48.858;10.128;2023-09-18T01:34:55;21.40;99.90
6377;DHT22;3221;48.858;10.128;2023-09-18T01:37:25;21.40;99.90
6377;DHT22;3221;48.858;10.128;2023-09-18T01:39:53;21.50;99.90
6377;DHT22;3221;48.858;10.128;2023-09-18T01:42:20;21.50;99.90
6377;DHT22;3221;48.858;10.128;2023-09-18T01:44:49;21.50;99.90
6377;DHT22;3221;48.858;10.128;2023-09-18T01:47:18;21.40;99.90
6377;DHT22;3221;48.858;10.128;2023-09-18T01:49:45;21.40;99.90
6377;DHT22;3221;48.858;10.128;2023-09-18T01:52:13;21.50;99.90
6377;DHT22;3221;48.858;10.128;2023-09-18T01:54:40;21.50;99.90
6377;DHT22;3221;48.858;10.128;2023-09-18T01:57:07;21.40;99.90
6377;DHT22;3221;48.858;10.128;2023-09-18T01:59:35;21.40;99.90
6377;DHT22;3221;48.858;10.128;2023-09-18T02:02:05;21.30;99.90
6377;DHT22;3221;48.858;10.128;2023-09-18T02:04:43;21.40;99.90
6377;DHT22;3221;48.858;10.128;2023-09-18T02:07:31;21.50;99.90
6377;DHT22;3221;48.858;10.128;2023-09-18T02:09:59;21.40;99.90
6377;DHT22;3221;48.858;10.128;2023-09-18T02:12:25;21.40;99.90
6377;DHT22;3221;48.858;10.128;2023-09-18T02:14:52;21.40;99.90
6377;DHT22;3221;48.858;10.128;2023-09-18T02:17:20;21.40;99.90
6377;DHT22;3221;48.858;10.128;2023-09-18T02:19:47;21.30;99.90
6377;DHT22;3221;48.858;10.128;2023-09-18T02:22:14;21.30;99.90
6377;DHT22;3221;48.858;10.128;2023-09-18T02:24:41;21.30;99.90
6377;DHT22;3221;48.858;10.128;2023-09-18T02:27:08;21.10;99.90
6377;DHT22;3221;48.858;10.128;2023-09-18T02:29:37;21.40;99.90
6377;DHT22;3221;48.858;10.128;2023-09-18T02:32:04;21.40;99.90
6377;DHT22;3221;48.858;10.128;2023-09-18T02:34:31;21.30;99.90
6377;DHT22;3221;48.858;10.128;2023-09-18T02:36:58;21.30;99.90
6377;DHT22;3221;48.858;10.128;2023-09-18T02:39:24;21.30;99.90
6377;DHT22;3221;48.858;10.128;2023-09-18T02:41:51;21.20;99.90
6377;DHT22;3221;48.858;10.128;2023-09-18T02:44:18;21.20;99.90
6377;DHT22;3221;48.858;10.128;2023-09-18T02:46:45;21.30;99.90
6377;DHT22;3221;48.858;10.128;2023-09-18T02:49:12;21.20;99.90
6377;DHT22;3221;48.858;10.128;2023-09-18T02:51:39;21.30;99.90
6377;DHT22;3221;48.858;10.128;2023-09-18T02:54:06;21.20;99.90
6377;DHT22;3221;48.858;10.128;2023-09-18T02:56:33;21.10;99.90
6377;DHT22;3221;48.858;10.128;2023-09-18T02:59:00;21.20;99.90
6377;DHT22;3221;48.858;10.128;2023-09-18T03:01:26;21.20;99.90
6377;DHT22;3221;48.858;10.128;2023-09-18T03:03:53;21.40;99.90
6377;DHT22;3221;48.858;10.128;2023-09-18T03:06:20;21.20;99.90
6377;DHT22;3221;48.858;10.128;2023-09-18T03:08:47;21.10;99.90
6377;DHT22;3221;48.858;10.128;2023-09-18T03:11:16;21.00;99.90
6377;DHT22;3221;48.858;10.128;2023-09-18T03:13:45;21.00;99.90
6377;DHT22;3221;48.858;10.128;2023-09-18T03:16:14;20.90;99.90
6377;DHT22;3221;48.858;10.128;2023-09-18T03:18:42;20.90;99.90
6377;DHT22;3221;48.858;10.128;2023-09-18T03:21:10;20.90;99.90
6377;DHT22;3221;48.858;10.128;2023-09-18T03:23:37;20.90;99.90
6377;DHT22;3221;48.858;10.128;2023-09-18T03:26:04;20.80;99.90
6377;DHT22;3221;48.858;10.128;2023-09-18T03:28:31;20.80;99.90
6377;DHT22;3221;48.858;10.128;2023-09-18T03:30:58;20.70;99.90
6377;DHT22;3221;48.858;10.128;2023-09-18T03:33:26;20.90;99.90
6377;DHT22;3221;48.858;10.128;2023-09-18T03:35:53;20.90;99.90
6377;DHT22;3221;48.858;10.128;2023-09-18T03:38:27;20.80;99.90
6377;DHT22;3221;48.858;10.128;2023-09-18T03:40:59;20.80;99.90
6377;DHT22;3221;48.858;10.128;2023-09-18T03:43:26;20.60;99.90
6377;DHT22;3221;48.858;10.128;2023-09-18T03:45:53;20.60;99.90
6377;DHT22;3221;48.858;10.128;2023-09-18T03:48:21;20.70;99.90
6377;DHT22;3221;48.858;10.128;2023-09-18T03:50:49;20.70;99.90
6377;DHT22;3221;48.858;10.128;2023-09-18T03:53:15;20.70;99.90
6377;DHT22;3221;48.858;10.128;2023-09-18T03:55:42;20.70;99.90
6377;DHT22;3221;48.858;10.128;2023-09-18T03:58:09;20.80;99.90
6377;DHT22;3221;48.858;10.128;2023-09-18T04:00:36;20.70;99.90
6377;DHT22;3221;48.858;10.128;2023-09-18T04:03:03;20.80;99.90
6377;DHT22;3221;48.858;10.128;2023-09-18T04:05:30;20.70;99.90
6377;DHT22;3221;48.858;10.128;2023-09-18T04:07:57;20.60;99.90
6377;DHT22;3221;48.858;10.128;2023-09-18T04:10:25;20.40;99.90
6377;DHT22;3221;48.858;10.128;2023-09-18T04:12:52;20.60;99.90
6377;DHT22;3221;48.858;10.128;2023-09-18T04:15:19;20.50;99.90
6377;DHT22;3221;48.858;10.128;2023-09-18T04:17:47;20.40;99.90
6377;DHT22;3221;48.858;10.128;2023-09-18T04:20:15;20.30;99.90
6377;DHT22;3221;48.858;10.128;2023-09-18T04:22:44;20.30;99.90
6377;DHT22;3221;48.858;10.128;2023-09-18T04:25:11;20.30;99.90
6377;DHT22;3221;48.858;10.128;2023-09-18T04:27:39;20.30;99.90
6377;DHT22;3221;48.858;10.128;2023-09-18T04:30:07;20.40;99.90
6377;DHT22;3221;48.858;10.128;2023-09-18T04:32:40;20.40;99.90
6377;DHT22;3221;48.858;10.128;2023-09-18T04:35:07;20.40;99.90
6377;DHT22;3221;48.858;10.128;2023-09-18T04:37:36;20.40;99.90
6377;DHT22;3221;48.858;10.128;2023-09-18T04:40:06;20.50;99.90
6377;DHT22;3221;48.858;10.128;2023-09-18T04:42:38;20.40;99.90
6377;DHT22;3221;48.858;10.128;2023-09-18T04:45:07;20.40;99.90
6377;DHT22;3221;48.858;10.128;2023-09-18T04:47:34;20.30;99.90
6377;DHT22;3221;48.858;10.128;2023-09-18T04:50:02;20.40;99.90
6377;DHT22;3221;48.858;10.128;2023-09-18T04:52:38;20.30;99.90
6377;DHT22;3221;48.858;10.128;2023-09-18T04:55:07;20.30;99.90
6377;DHT22;3221;48.858;10.128;2023-09-18T04:57:35;20.30;99.90
6377;DHT22;3221;48.858;10.128;2023-09-18T05:00:03;20.10;99.90
6377;DHT22;3221;48.858;10.128;2023-09-18T05:02:44;20.30;99.90
6377;DHT22;3221;48.858;10.128;2023-09-18T05:05:12;20.20;99.90
6377;DHT22;3221;48.858;10.128;2023-09-18T05:07:41;20.20;99.90
6377;DHT22;3221;48.858;10.128;2023-09-18T05:10:09;20.20;99.90
6377;DHT22;3221;48.858;10.128;2023-09-18T05:12:38;20.30;99.90
6377;DHT22;3221;48.858;10.128;2023-09-18T05:15:06;20.30;99.90
6377;DHT22;3221;48.858;10.128;2023-09-18T05:17:43;20.40;99.90
6377;DHT22;3221;48.858;10.128;2023-09-18T05:20:12;20.50;99.90
6377;DHT22;3221;48.858;10.128;2023-09-18T05:22:42;20.50;99.90
6377;DHT22;3221;48.858;10.128;2023-09-18T05:25:09;20.40;99.90
6377;DHT22;3221;48.858;10.128;2023-09-18T05:27:37;20.20;99.90
6377;DHT22;3221;48.858;10.128;2023-09-18T05:32:39;20.20;99.90
6377;DHT22;3221;48.858;10.128;2023-09-18T05:35:06;20.30;99.90
6377;DHT22;3221;48.858;10.128;2023-09-18T05:37:37;20.30;99.90
6377;DHT22;3221;48.858;10.128;2023-09-18T05:40:10;20.30;99.90
6377;DHT22;3221;48.858;10.128;2023-09-18T05:42:38;20.40;99.90
6377;DHT22;3221;48.858;10.128;2023-09-18T05:45:06;20.40;99.90
6377;DHT22;3221;48.858;10.128;2023-09-18T05:47:33;20.40;99.90
6377;DHT22;3221;48.858;10.128;2023-09-18T05:50:02;20.40;99.90
6377;DHT22;3221;48.858;10.128;2023-09-18T05:52:34;20.30;99.90
6377;DHT22;3221;48.858;10.128;2023-09-18T05:55:02;20.30;99.90
6377;DHT22;3221;48.858;10.128;2023-09-18T05:57:31;20.20;99.90
6377;DHT22;3221;48.858;10.128;2023-09-18T05:59:58;20.10;99.90
6377;DHT22;3221;48.858;10.128;2023-09-18T06:02:25;20.10;99.90
6377;DHT22;3221;48.858;10.128;2023-09-18T06:04:56;20.10;99.90
6377;DHT22;3221;48.858;10.128;2023-09-18T06:07:27;20.00;99.90
6377;DHT22;3221;48.858;10.128;2023-09-18T06:09:54;20.00;99.90
6377;DHT22;3221;48.858;10.128;2023-09-18T06:12:21;20.00;99.90
6377;DHT22;3221;48.858;10.128;2023-09-18T06:14:48;19.90;99.90
6377;DHT22;3221;48.858;10.128;2023-09-18T06:17:16;20.00;99.90
6377;DHT22;3221;48.858;10.128;2023-09-18T06:19:44;20.00;99.90
6377;DHT22;3221;48.858;10.128;2023-09-18T06:22:12;20.00;99.90
6377;DHT22;3221;48.858;10.128;2023-09-18T06:24:39;20.10;99.90
6377;DHT22;3221;48.858;10.128;2023-09-18T06:27:06;20.00;99.90
6377;DHT22;3221;48.858;10.128;2023-09-18T06:29:33;19.90;99.90
6377;DHT22;3221;48.858;10.128;2023-09-18T06:32:01;20.10;99.90
6377;DHT22;3221;48.858;10.128;2023-09-18T06:34:27;20.10;99.90
6377;DHT22;3221;48.858;10.128;2023-09-18T06:36:55;20.20;99.90
6377;DHT22;3221;48.858;10.128;2023-09-18T06:39:21;20.10;99.90
6377;DHT22;3221;48.858;10.128;2023-09-18T06:41:50;20.10;99.90
6377;DHT22;3221;48.858;10.128;2023-09-18T06:44:18;20.00;99.90
6377;DHT22;3221;48.858;10.128;2023-09-18T06:46:45;20.20;99.90
6377;DHT22;3221;48.858;10.128;2023-09-18T06:49:12;20.10;99.90
6377;DHT22;3221;48.858;10.128;2023-09-18T06:51:39;20.20;99.90
6377;DHT22;3221;48.858;10.128;2023-09-18T06:54:09;20.40;99.90
6377;DHT22;3221;48.858;10.128;2023-09-18T06:56:36;20.30;99.90
6377;DHT22;3221;48.858;10.128;2023-09-18T06:59:03;20.30;99.90
6377;DHT22;3221;48.858;10.128;2023-09-18T07:01:30;20.50;99.90
6377;DHT22;3221;48.858;10.128;2023-09-18T07:03:58;20.80;99.90
6377;DHT22;3221;48.858;10.128;2023-09-18T07:06:27;20.90;99.90
6377;DHT22;3221;48.858;10.128;2023-09-18T07:08:53;20.80;99.90
6377;DHT22;3221;48.858;10.128;2023-09-18T07:11:21;20.70;99.90
6377;DHT22;3221;48.858;10.128;2023-09-18T07:13:51;20.70;99.90
6377;DHT22;3221;48.858;10.128;2023-09-18T07:16:18;20.70;99.90
6377;DHT22;3221;48.858;10.128;2023-09-18T07:18:45;20.60;99.90
6377;DHT22;3221;48.858;10.128;2023-09-18T07:21:12;20.60;99.90
6377;DHT22;3221;48.858;10.128;2023-09-18T07:23:40;20.80;99.90
6377;DHT22;3221;48.858;10.128;2023-09-18T07:26:07;20.80;99.90
6377;DHT22;3221;48.858;10.128;2023-09-18T07:28:35;20.90;99.90
6377;DHT22;3221;48.858;10.128;2023-09-18T07:31:06;20.90;99.90
6377;DHT22;3221;48.858;10.128;2023-09-18T07:33:33;20.80;99.90
6377;DHT22;3221;48.858;10.128;2023-09-18T07:36:01;20.70;99.90
6377;DHT22;3221;48.858;10.128;2023-09-18T07:38:27;20.90;99.90
6377;DHT22;3221;48.858;10.128;2023-09-18T07:40:54;21.00;99.90
6377;DHT22;3221;48.858;10.128;2023-09-18T07:43:24;20.90;99.90
6377;DHT22;3221;48.858;10.128;2023-09-18T07:45:52;21.10;99.90
6377;DHT22;3221;48.858;10.128;2023-09-18T07:48:21;21.00;99.90
6377;DHT22;3221;48.858;10.128;2023-09-18T07:50:48;20.90;99.90
6377;DHT22;3221;48.858;10.128;2023-09-18T07:53:17;20.90;99.90
6377;DHT22;3221;48.858;10.128;2023-09-18T07:55:44;21.00;99.90
6377;DHT22;3221;48.858;10.128;2023-09-18T07:58:10;21.00;99.90
6377;DHT22;3221;48.858;10.128;2023-09-18T08:00:38;21.10;99.90
6377;DHT22;3221;48.858;10.128;2023-09-18T08:03:06;20.90;99.90
6377;DHT22;3221;48.858;10.128;2023-09-18T08:05:33;21.10;99.90
6377;DHT22;3221;48.858;10.128;2023-09-18T08:08:00;21.20;99.90
6377;DHT22;3221;48.858;10.128;2023-09-18T08:10:27;21.10;99.90
6377;DHT22;3221;48.858;10.128;2023-09-18T08:12:54;21.10;99.90
6377;DHT22;3221;48.858;10.128;2023-09-18T08:15:21;21.00;99.90
6377;DHT22;3221;48.858;10.128;2023-09-18T08:17:48;21.00;99.90
6377;DHT22;3221;48.858;10.128;2023-09-18T08:20:16;21.20;99.90
6377;DHT22;3221;48.858;10.128;2023-09-18T08:22:43;21.30;99.90
6377;DHT22;3221;48.858;10.128;2023-09-18T08:25:11;21.20;99.90
6377;DHT22;3221;48.858;10.128;2023-09-18T08:27:39;21.30;99.90
6377;DHT22;3221;48.858;10.128;2023-09-18T08:30:11;21.20;99.90
6377;DHT22;3221;48.858;10.128;2023-09-18T08:32:38;21.20;99.90
6377;DHT22;3221;48.858;10.128;2023-09-18T08:35:06;21.20;99.90
6377;DHT22;3221;48.858;10.128;2023-09-18T08:37:33;21.10;99.90
6377;DHT22;3221;48.858;10.128;2023-09-18T08:40:00;21.10;99.90
6377;DHT22;3221;48.858;10.128;2023-09-18T08:42:33;21.00;99.90
6377;DHT22;3221;48.858;10.128;2023-09-18T08:45:01;21.10;99.90
6377;DHT22;3221;48.858;10.128;2023-09-18T08:47:29;21.30;99.90
6377;DHT22;3221;48.858;10.128;2023-09-18T08:49:57;21.10;99.90
6377;DHT22;3221;48.858;10.128;2023-09-18T08:52:26;21.30;99.90
6377;DHT22;3221;48.858;10.128;2023-09-18T08:54:54;21.40;99.90
6377;DHT22;3221;48.858;10.128;2023-09-18T08:57:21;21.30;99.90
6377;DHT22;3221;48.858;10.128;2023-09-18T08:59:48;21.30;99.90
6377;DHT22;3221;48.858;10.128;2023-09-18T09:02:16;21.20;99.90
6377;DHT22;3221;48.858;10.128;2023-09-18T09:04:43;21.20;99.90
6377;DHT22;3221;48.858;10.128;2023-09-18T09:07:10;21.40;99.90
6377;DHT22;3221;48.858;10.128;2023-09-18T09:09:37;21.30;99.90
6377;DHT22;3221;48.858;10.128;2023-09-18T09:12:05;21.40;99.90
6377;DHT22;3221;48.858;10.128;2023-09-18T09:14:32;21.40;99.90
6377;DHT22;3221;48.858;10.128;2023-09-18T09:16:59;21.40;99.90
6377;DHT22;3221;48.858;10.128;2023-09-18T09:19:36;21.40;99.90
6377;DHT22;3221;48.858;10.128;2023-09-18T09:22:09;21.30;99.90
6377;DHT22;3221;48.858;10.128;2023-09-18T09:24:43;21.30;99.90
6377;DHT22;3221;48.858;10.128;2023-09-18T09:27:10;21.30;99.90
6377;DHT22;3221;48.858;10.128;2023-09-18T09:29:37;21.20;99.90
6377;DHT22;3221;48.858;10.128;2023-09-18T09:32:17;21.30;99.90
6377;DHT22;3221;48.858;10.128;2023-09-18T09:34:45;21.20;99.90
6377;DHT22;3221;48.858;10.128;2023-09-18T09:37:15;21.30;99.90
6377;DHT22;3221;48.858;10.128;2023-09-18T09:39:49;21.20;99.90
6377;DHT22;3221;48.858;10.128;2023-09-18T09:42:20;21.20;99.90
6377;DHT22;3221;48.858;10.128;2023-09-18T09:45:02;21.10;99.90
6377;DHT22;3221;48.858;10.128;2023-09-18T09:47:36;21.20;99.90
6377;DHT22;3221;48.858;10.128;2023-09-18T09:50:14;21.20;99.90
6377;DHT22;3221;48.858;10.128;2023-09-18T09:52:43;21.20;99.90
6377;DHT22;3221;48.858;10.128;2023-09-18T09:55:40;21.20;99.90
6377;DHT22;3221;48.858;10.128;2023-09-18T09:58:08;21.10;99.90
6377;DHT22;3221;48.858;10.128;2023-09-18T10:00:46;21.10;99.90
6377;DHT22;3221;48.858;10.128;2023-09-18T10:03:18;21.10;99.90
6377;DHT22;3221;48.858;10.128;2023-09-18T10:05:47;21.10;99.90
6377;DHT22;3221;48.858;10.128;2023-09-18T10:08:24;21.10;99.90
6377;DHT22;3221;48.858;10.128;2023-09-18T10:11:15;21.00;99.90
6377;DHT22;3221;48.858;10.128;2023-09-18T10:13:59;21.00;99.90
6377;DHT22;3221;48.858;10.128;2023-09-18T10:16:30;21.10;99.90
6377;DHT22;3221;48.858;10.128;2023-09-18T10:22:05;21.00;99.90
6377;DHT22;3221;48.858;10.128;2023-09-18T10:24:38;21.00;99.90
6377;DHT22;3221;48.858;10.128;2023-09-18T10:27:08;20.80;99.90
6377;DHT22;3221;48.858;10.128;2023-09-18T10:29:38;20.90;99.90
6377;DHT22;3221;48.858;10.128;2023-09-18T10:32:07;20.80;99.90
6377;DHT22;3221;48.858;10.128;2023-09-18T10:34:35;20.90;99.90
6377;DHT22;3221;48.858;10.128;2023-09-18T10:37:04;20.80;99.90
6377;DHT22;3221;48.858;10.128;2023-09-18T10:39:38;20.70;99.90
6377;DHT22;3221;48.858;10.128;2023-09-18T10:42:08;20.90;99.90
6377;DHT22;3221;48.858;10.128;2023-09-18T10:44:36;20.90;99.90
6377;DHT22;3221;48.858;10.128;2023-09-18T10:47:08;20.70;99.90
6377;DHT22;3221;48.858;10.128;2023-09-18T10:49:37;20.90;99.90
6377;DHT22;3221;48.858;10.128;2023-09-18T10:52:04;20.80;99.90
6377;DHT22;3221;48.858;10.128;2023-09-18T10:54:32;20.80;99.90
6377;DHT22;3221;48.858;10.128;2023-09-18T10:57:00;20.80;99.90
6377;DHT22;3221;48.858;10.128;2023-09-18T10:59:28;20.70;99.90
6377;DHT22;3221;48.858;10.128;2023-09-18T11:02:02;20.80;99.90
6377;DHT22;3221;48.858;10.128;2023-09-18T11:04:32;20.70;99.90
6377;DHT22;3221;48.858;10.128;2023-09-18T11:09:31;20.50;99.90
6377;DHT22;3221;48.858;10.128;2023-09-18T11:20:17;20.40;99.90
6377;DHT22;3221;48.858;10.128;2023-09-18T11:23:09;20.30;99.90
6377;DHT22;3221;48.858;10.128;2023-09-18T11:25:37;20.40;99.90
6377;DHT22;3221;48.858;10.128;2023-09-18T11:28:06;20.40;99.90
6377;DHT22;3221;48.858;10.128;2023-09-18T11:30:35;20.50;99.90
6377;DHT22;3221;48.858;10.128;2023-09-18T11:33:06;20.40;99.90
6377;DHT22;3221;48.858;10.128;2023-09-18T11:35:36;20.30;99.90
6377;DHT22;3221;48.858;10.128;2023-09-18T11:38:09;20.60;99.90
6377;DHT22;3221;48.858;10.128;2023-09-18T11:40:38;20.40;99.90
6377;DHT22;3221;48.858;10.128;2023-09-18T11:43:27;20.30;99.90
6377;DHT22;3221;48.858;10.128;2023-09-18T11:45:58;20.30;99.90
6377;DHT22;3221;48.858;10.128;2023-09-18T11:48:27;20.20;99.90
6377;DHT22;3221;48.858;10.128;2023-09-18T11:50:57;20.30;99.90
6377;DHT22;3221;48.858;10.128;2023-09-18T11:53:27;20.40;99.90
6377;DHT22;3221;48.858;10.128;2023-09-18T11:55:54;20.40;99.90
6377;DHT22;3221;48.858;10.128;2023-09-18T11:58:22;20.40;99.90
6377;DHT22;3221;48.858;10.128;2023-09-18T12:00:50;20.40;99.90
6377;DHT22;3221;48.858;10.128;2023-09-18T12:03:21;20.20;99.90
6377;DHT22;3221;48.858;10.128;2023-09-18T12:08:23;20.10;99.90
6377;DHT22;3221;48.858;10.128;2023-09-18T12:10:50;20.00;99.90
6377;DHT22;3221;48.858;10.128;2023-09-18T12:13:17;20.10;99.90
6377;DHT22;3221;48.858;10.128;2023-09-18T12:15:44;20.10;99.90
6377;DHT22;3221;48.858;10.128;2023-09-18T12:18:11;19.90;99.90
6377;DHT22;3221;48.858;10.128;2023-09-18T12:20:45;20.00;99.90
6377;DHT22;3221;48.858;10.128;2023-09-18T12:23:12;19.80;99.90
6377;DHT22;3221;48.858;10.128;2023-09-18T12:25:39;19.90;99.90
6377;DHT22;3221;48.858;10.128;2023-09-18T12:28:07;19.90;99.90
6377;DHT22;3221;48.858;10.128;2023-09-18T12:30:34;19.90;99.90
6377;DHT22;3221;48.858;10.128;2023-09-18T12:33:01;19.80;99.90
6377;DHT22;3221;48.858;10.128;2023-09-18T12:35:31;19.80;99.90
6377;DHT22;3221;48.858;10.128;2023-09-18T12:37:59;19.80;99.90
6377;DHT22;3221;48.858;10.128;2023-09-18T12:40:28;19.70;99.90
6377;DHT22;3221;48.858;10.128;2023-09-18T12:42:56;19.60;99.90
6377;DHT22;3221;48.858;10.128;2023-09-18T12:45:25;19.60;99.90
6377;DHT22;3221;48.858;10.128;2023-09-18T12:47:54;19.60;99.90
6377;DHT22;3221;48.858;10.128;2023-09-18T12:50:22;19.60;99.90
6377;DHT22;3221;48.858;10.128;2023-09-18T12:52:49;19.50;99.90
6377;DHT22;3221;48.858;10.128;2023-09-18T12:55:25;19.50;99.90
6377;DHT22;3221;48.858;10.128;2023-09-18T12:57:54;19.40;99.90
6377;DHT22;3221;48.858;10.128;2023-09-18T13:00:22;19.20;99.90
6377;DHT22;3221;48.858;10.128;2023-09-18T13:02:50;19.20;99.90
6377;DHT22;3221;48.858;10.128;2023-09-18T13:05:24;19.30;99.90
6377;DHT22;3221;48.858;10.128;2023-09-18T13:08:05;19.20;99.90
6377;DHT22;3221;48.858;10.128;2023-09-18T13:10:45;19.30;99.90
6377;DHT22;3221;48.858;10.128;2023-09-18T13:13:21;19.20;99.90
6377;DHT22;3221;48.858;10.128;2023-09-18T13:15:49;19.30;99.90
6377;DHT22;3221;48.858;10.128;2023-09-18T13:18:19;19.30;99.90
6377;DHT22;3221;48.858;10.128;2023-09-18T13:20:46;19.20;99.90
6377;DHT22;3221;48.858;10.128;2023-09-18T13:23:13;19.20;99.90
6377;DHT22;3221;48.858;10.128;2023-09-18T13:25:47;19.10;99.90
6377;DHT22;3221;48.858;10.128;2023-09-18T13:28:14;19.10;99.90
6377;DHT22;3221;48.858;10.128;2023-09-18T13:30:42;19.10;99.90
6377;DHT22;3221;48.858;10.128;2023-09-18T13:33:11;18.90;99.90
6377;DHT22;3221;48.858;10.128;2023-09-18T13:35:40;19.10;99.90
6377;DHT22;3221;48.858;10.128;2023-09-18T13:38:08;19.10;99.90
6377;DHT22;3221;48.858;10.128;2023-09-18T13:40:35;19.10;99.90
6377;DHT22;3221;48.858;10.128;2023-09-18T13:43:03;19.00;99.90
6377;DHT22;3221;48.858;10.128;2023-09-18T13:45:32;19.20;99.90
6377;DHT22;3221;48.858;10.128;2023-09-18T13:47:59;19.10;99.90
6377;DHT22;3221;48.858;10.128;2023-09-18T13:50:26;19.10;99.90
6377;DHT22;3221;48.858;10.128;2023-09-18T13:52:53;19.00;99.90
6377;DHT22;3221;48.858;10.128;2023-09-18T13:55:20;18.90;99.90
6377;DHT22;3221;48.858;10.128;2023-09-18T13:57:47;19.00;99.90
6377;DHT22;3221;48.858;10.128;2023-09-18T14:00:14;19.00;99.90
6377;DHT22;3221;48.858;10.128;2023-09-18T14:02:41;19.10;99.90
6377;DHT22;3221;48.858;10.128;2023-09-18T14:05:09;19.10;99.90
6377;DHT22;3221;48.858;10.128;2023-09-18T14:07:42;19.20;99.90
6377;DHT22;3221;48.858;10.128;2023-09-18T14:10:10;19.00;99.90
6377;DHT22;3221;48.858;10.128;2023-09-18T14:12:38;19.00;99.90
6377;DHT22;3221;48.858;10.128;2023-09-18T14:15:06;19.10;99.90
6377;DHT22;3221;48.858;10.128;2023-09-18T14:17:34;19.00;99.90
6377;DHT22;3221;48.858;10.128;2023-09-18T14:20:03;19.00;99.90
6377;DHT22;3221;48.858;10.128;2023-09-18T14:22:36;19.10;99.90
6377;DHT22;3221;48.858;10.128;2023-09-18T14:25:04;19.10;99.90
6377;DHT22;3221;48.858;10.128;2023-09-18T14:27:33;19.00;99.90
6377;DHT22;3221;48.858;10.128;2023-09-18T14:30:03;19.10;99.90
6377;DHT22;3221;48.858;10.128;2023-09-18T14:32:34;19.10;99.90
6377;DHT22;3221;48.858;10.128;2023-09-18T14:35:04;19.00;99.90
6377;DHT22;3221;48.858;10.128;2023-09-18T14:37:32;19.00;99.90
6377;DHT22;3221;48.858;10.128;2023-09-18T14:39:59;19.00;99.90
6377;DHT22;3221;48.858;10.128;2023-09-18T14:42:26;19.10;99.90
6377;DHT22;3221;48.858;10.128;2023-09-18T14:44:53;19.00;99.90
6377;DHT22;3221;48.858;10.128;2023-09-18T14:47:19;19.20;99.90
6377;DHT22;3221;48.858;10.128;2023-09-18T14:49:49;19.20;99.90
6377;DHT22;3221;48.858;10.128;2023-09-18T14:52:16;19.20;99.90
6377;DHT22;3221;48.858;10.128;2023-09-18T14:54:45;19.20;99.90
6377;DHT22;3221;48.858;10.128;2023-09-18T14:57:13;19.30;99.90
6377;DHT22;3221;48.858;10.128;2023-09-18T14:59:39;19.20;99.90
6377;DHT22;3221;48.858;10.128;2023-09-18T15:02:09;19.20;99.90
6377;DHT22;3221;48.858;10.128;2023-09-18T15:04:36;19.10;99.90
6377;DHT22;3221;48.858;10.128;2023-09-18T15:07:03;19.20;99.90
6377;DHT22;3221;48.858;10.128;2023-09-18T15:09:30;19.10;99.90
6377;DHT22;3221;48.858;10.128;2023-09-18T15:11:57;19.10;99.90
6377;DHT22;3221;48.858;10.128;2023-09-18T15:14:24;19.20;99.90
6377;DHT22;3221;48.858;10.128;2023-09-18T15:16:51;19.30;99.90
6377;DHT22;3221;48.858;10.128;2023-09-18T15:19:18;19.20;99.90
6377;DHT22;3221;48.858;10.128;2023-09-18T15:21:46;19.40;99.90
6377;DHT22;3221;48.858;10.128;2023-09-18T15:24:13;19.40;99.90
6377;DHT22;3221;48.858;10.128;2023-09-18T15:26:40;19.30;99.90
6377;DHT22;3221;48.858;10.128;2023-09-18T15:29:08;19.30;99.90
6377;DHT22;3221;48.858;10.128;2023-09-18T15:31:35;19.40;99.90
6377;DHT22;3221;48.858;10.128;2023-09-18T15:34:02;19.50;99.90
6377;DHT22;3221;48.858;10.128;2023-09-18T15:36:30;19.30;99.90
6377;DHT22;3221;48.858;10.128;2023-09-18T15:38:58;19.20;99.90
6377;DHT22;3221;48.858;10.128;2023-09-18T15:41:26;19.30;99.90
6377;DHT22;3221;48.858;10.128;2023-09-18T15:43:55;19.30;99.90
6377;DHT22;3221;48.858;10.128;2023-09-18T15:46:22;19.40;99.90
6377;DHT22;3221;48.858;10.128;2023-09-18T15:48:50;19.50;99.90
6377;DHT22;3221;48.858;10.128;2023-09-18T15:51:17;19.40;99.90
6377;DHT22;3221;48.858;10.128;2023-09-18T15:53:45;19.40;99.90
6377;DHT22;3221;48.858;10.128;2023-09-18T15:56:12;19.30;99.90
6377;DHT22;3221;48.858;10.128;2023-09-18T15:58:40;19.00;99.90
6377;DHT22;3221;48.858;10.128;2023-09-18T16:01:07;19.00;99.90
6377;DHT22;3221;48.858;10.128;2023-09-18T16:03:38;19.10;99.90
6377;DHT22;3221;48.858;10.128;2023-09-18T16:06:07;19.20;99.90
6377;DHT22;3221;48.858;10.128;2023-09-18T16:08:34;18.90;99.90
6377;DHT22;3221;48.858;10.128;2023-09-18T16:11:01;19.00;99.90
6377;DHT22;3221;48.858;10.128;2023-09-18T16:13:28;19.00;99.90